createdAt,value
2022-08-10T00:00:00.181Z,964
2022-08-10T00:05:00.187Z,963.4
2022-08-10T00:10:00.171Z,963.6
2022-08-10T00:15:00.171Z,963.6
2022-08-10T00:20:04.054Z,963.8
2022-08-10T00:25:00.172Z,963.8
2022-08-10T00:30:00.224Z,964.5
2022-08-10T00:35:00.235Z,964.3
2022-08-10T00:40:00.474Z,963.8
2022-08-10T00:45:00.309Z,964
2022-08-10T00:50:00.302Z,964
2022-08-10T00:55:00.281Z,963.6
2022-08-10T01:00:00.817Z,964.3
2022-08-10T01:05:02.084Z,964
2022-08-10T01:10:00.173Z,964
2022-08-10T01:15:00.167Z,963.6
2022-08-10T01:20:00.163Z,964.5
2022-08-10T01:25:00.157Z,964.7
2022-08-10T01:30:00.164Z,964.5
2022-08-10T01:35:00.164Z,964.5
2022-08-10T01:40:00.206Z,964.5
2022-08-10T01:45:00.153Z,964
2022-08-10T01:50:00.157Z,964.3
2022-08-10T01:55:00.155Z,963.8
2022-08-10T02:00:02.206Z,964.3
2022-08-10T02:05:00.328Z,964.3
2022-08-10T02:10:00.176Z,964.3
2022-08-10T02:15:00.152Z,964.5
2022-08-10T02:20:00.163Z,964
2022-08-10T02:25:00.156Z,964.7
2022-08-10T02:30:00.178Z,964.9
2022-08-10T02:35:00.156Z,964.9
2022-08-10T02:40:00.159Z,964.9
2022-08-10T02:45:24.706Z,965.1
2022-08-10T02:50:00.290Z,965.6
2022-08-10T02:55:11.272Z,965.4
2022-08-10T03:00:00.165Z,965.4
2022-08-10T03:05:00.181Z,965.8
2022-08-10T03:10:00.175Z,965.8
2022-08-10T03:15:00.165Z,966
2022-08-10T03:20:35.232Z,966
2022-08-10T03:25:00.170Z,966.2
2022-08-10T03:30:29.681Z,966
2022-08-10T03:35:00.159Z,966
2022-08-10T03:40:00.182Z,966.4
2022-08-10T03:45:00.161Z,966.4
2022-08-10T03:50:25.893Z,966.2
2022-08-10T03:55:00.175Z,966.2
2022-08-10T04:00:00.171Z,966.9
2022-08-10T04:05:00.165Z,966.9
2022-08-10T04:10:00.164Z,967.1
2022-08-10T04:15:00.177Z,967.1
2022-08-10T04:20:00.181Z,967.1
2022-08-10T04:25:00.171Z,967.5
2022-08-10T04:30:00.206Z,967.5
2022-08-10T04:35:00.161Z,967.5
2022-08-10T04:40:00.165Z,967.7
2022-08-10T04:45:00.153Z,967.5
2022-08-10T04:50:00.166Z,967.5
2022-08-10T04:55:00.153Z,967.5
2022-08-10T05:00:00.178Z,968
2022-08-10T05:05:00.161Z,967.5
2022-08-10T05:10:06.582Z,968
2022-08-10T05:15:00.221Z,967.5
2022-08-10T05:20:03.568Z,967.5
2022-08-10T05:25:00.369Z,967.1
2022-08-10T05:30:01.025Z,966.7
2022-08-10T05:35:00.219Z,966.2
2022-08-10T05:40:00.282Z,966.7
2022-08-10T05:45:00.157Z,966.2
2022-08-10T05:50:00.159Z,965.8
2022-08-10T05:55:02.907Z,965.8
2022-08-10T06:00:33.233Z,965.6
2022-08-10T06:05:00.166Z,964.9
2022-08-10T06:10:00.395Z,965.4
2022-08-10T06:15:04.055Z,964.9
2022-08-10T06:20:00.208Z,964.5
2022-08-10T06:25:27.275Z,964
2022-08-10T06:30:00.169Z,963.8
2022-08-10T06:35:00.168Z,964
2022-08-10T06:40:00.324Z,963
2022-08-10T06:45:00.181Z,962.7
2022-08-10T06:50:01.472Z,963.2
2022-08-10T06:55:00.483Z,962.3
2022-08-10T07:00:00.166Z,962.1
2022-08-10T07:05:00.156Z,962.3
2022-08-10T07:10:00.217Z,961.2
2022-08-10T07:15:00.165Z,961.7
2022-08-10T07:20:00.164Z,961
2022-08-10T07:25:00.159Z,960.6
2022-08-10T07:30:00.226Z,959.9
2022-08-10T07:35:00.153Z,959.7
2022-08-10T07:40:03.982Z,959.7
2022-08-10T07:45:00.165Z,958.8
2022-08-10T07:50:00.160Z,958.4
2022-08-10T07:55:00.168Z,958
2022-08-10T08:00:00.194Z,957.1
2022-08-10T08:05:00.159Z,956
2022-08-10T08:10:01.146Z,955.8
2022-08-10T08:15:00.165Z,955.4
2022-08-10T08:20:00.165Z,954.5
2022-08-10T08:25:00.166Z,953.6
2022-08-10T08:30:00.197Z,953.6
2022-08-10T08:35:00.158Z,953.4
2022-08-10T08:40:00.170Z,952.3
2022-08-10T08:45:00.159Z,953.2
2022-08-10T08:50:09.051Z,952.3
2022-08-10T08:55:00.164Z,951.7
2022-08-10T09:00:00.181Z,951.7
2022-08-10T09:05:00.155Z,951
2022-08-10T09:10:00.199Z,950.6
2022-08-10T09:15:00.153Z,950.8
2022-08-10T09:20:00.199Z,950.6
2022-08-10T09:25:00.207Z,950.1
2022-08-10T09:30:00.178Z,950.1
2022-08-10T09:36:20.094Z,949.7
2022-08-10T09:40:55.968Z,949.5
2022-08-10T09:45:00.161Z,948.8
2022-08-10T09:50:04.337Z,949.3
2022-08-10T09:55:00.157Z,948.6
2022-08-10T10:00:02.526Z,948.4
2022-08-10T10:05:00.161Z,948
2022-08-10T10:10:00.185Z,948.8
2022-08-10T10:15:00.269Z,947.5
2022-08-10T10:20:00.227Z,947.5
2022-08-10T10:25:00.201Z,947.7
2022-08-10T10:30:00.175Z,947.3
2022-08-10T10:35:00.167Z,947.5
2022-08-10T10:40:00.300Z,946.9
2022-08-10T10:45:00.161Z,945.8
2022-08-10T10:50:00.189Z,947.3
2022-08-10T10:55:00.157Z,947.1
2022-08-10T11:00:00.171Z,947.5
2022-08-10T11:05:00.154Z,945.4
2022-08-10T11:10:05.636Z,946.4
2022-08-10T11:15:00.151Z,945.4
2022-08-10T11:20:03.591Z,945.6
2022-08-10T11:25:00.180Z,945.8
2022-08-10T11:30:00.219Z,944.7
2022-08-10T11:35:11.402Z,944.5
2022-08-10T11:40:00.295Z,945.4
2022-08-10T11:45:00.161Z,945.1
2022-08-10T11:50:00.197Z,944.9
2022-08-10T11:55:00.156Z,944
2022-08-10T12:00:00.191Z,943.8
2022-08-10T12:05:00.154Z,943.8
2022-08-10T12:10:09.686Z,944
2022-08-10T12:15:00.169Z,944.3
2022-08-10T12:20:03.019Z,943
2022-08-10T12:25:00.175Z,941.9
2022-08-10T12:30:00.198Z,943.2
2022-08-10T12:35:00.184Z,942.3
2022-08-10T12:40:24.295Z,943.8
2022-08-10T12:45:00.166Z,943
2022-08-10T12:50:29.772Z,943.2
2022-08-10T12:55:00.167Z,942.3
2022-08-10T13:00:00.191Z,943.2
2022-08-10T13:05:00.168Z,943
2022-08-10T13:10:00.166Z,942.5
2022-08-10T13:15:00.171Z,942.3
2022-08-10T13:20:08.167Z,942.3
2022-08-10T13:25:00.166Z,942.7
2022-08-10T13:30:03.455Z,941.9
2022-08-10T13:35:00.160Z,941.9
2022-08-10T13:40:00.963Z,941.4
2022-08-10T13:45:00.175Z,941.9
2022-08-10T13:50:00.255Z,942.3
2022-08-10T13:55:00.161Z,941.9
2022-08-10T14:00:35.271Z,942.3
2022-08-10T14:05:00.170Z,942.3
2022-08-10T14:10:00.842Z,941.4
2022-08-10T14:15:00.166Z,941.9
2022-08-10T14:20:00.331Z,941.4
2022-08-10T14:25:00.159Z,941.9
2022-08-10T14:30:00.192Z,941.7
2022-08-10T14:36:21.253Z,942.3
2022-08-10T14:40:00.321Z,942.5
2022-08-10T14:45:00.169Z,942.3
2022-08-10T14:50:00.304Z,941.2
2022-08-10T14:55:00.163Z,941.4
2022-08-10T15:00:25.269Z,940.6
2022-08-10T15:05:00.166Z,941.4
2022-08-10T15:10:04.011Z,941.2
2022-08-10T15:15:00.815Z,941.7
2022-08-10T15:20:02.186Z,942.5
2022-08-10T15:25:00.158Z,942.3
2022-08-10T15:30:00.284Z,942.3
2022-08-10T15:35:00.164Z,942.3
2022-08-10T15:40:25.616Z,942.3
2022-08-10T15:45:00.171Z,942.5
2022-08-10T15:50:00.185Z,942.7
2022-08-10T15:55:00.170Z,943.2
2022-08-10T16:00:00.224Z,942.5
2022-08-10T16:05:00.227Z,943.6
2022-08-10T16:10:23.637Z,944
2022-08-10T16:15:00.275Z,944
2022-08-10T16:20:00.326Z,944
2022-08-10T16:25:00.169Z,944
2022-08-10T16:30:00.219Z,943.6
2022-08-10T16:35:00.160Z,943.6
2022-08-10T16:40:01.414Z,944
2022-08-10T16:45:00.159Z,943.6
2022-08-10T16:50:00.192Z,943.8
2022-08-10T16:55:00.161Z,944
2022-08-10T17:00:00.214Z,943.6
2022-08-10T17:05:00.164Z,940.6
2022-08-10T17:10:00.159Z,942.5
2022-08-10T17:15:09.437Z,942.3
2022-08-10T17:20:32.048Z,943.4
2022-08-10T17:25:00.156Z,943.6
2022-08-10T17:30:03.839Z,944
2022-08-10T17:35:00.156Z,944.5
2022-08-10T17:40:00.214Z,945.1
2022-08-10T17:45:00.155Z,945.4
2022-08-10T17:50:00.189Z,945.4
2022-08-10T17:55:00.161Z,946.4
2022-08-10T18:00:00.213Z,947.1
2022-08-10T18:05:00.161Z,947.1
2022-08-10T18:10:00.176Z,947.5
2022-08-10T18:15:00.169Z,948.4
2022-08-10T18:20:00.228Z,948
2022-08-10T18:25:00.158Z,948.8
2022-08-10T18:30:00.165Z,948.6
2022-08-10T18:35:00.154Z,949
2022-08-10T18:40:00.170Z,949.5
2022-08-10T18:45:00.162Z,950.6
2022-08-10T18:50:00.168Z,951.7
2022-08-10T18:55:00.168Z,952.5
2022-08-10T19:00:03.802Z,953.2
2022-08-10T19:05:00.160Z,954
2022-08-10T19:10:00.171Z,954.9
2022-08-10T19:15:00.169Z,954.9
2022-08-10T19:20:00.170Z,955.8
2022-08-10T19:25:00.176Z,956.7
2022-08-10T19:30:09.896Z,957.5
2022-08-10T19:35:00.159Z,958
2022-08-10T19:40:00.294Z,958.8
2022-08-10T19:45:00.169Z,958.8
2022-08-10T19:50:00.191Z,959.3
2022-08-10T19:55:00.161Z,959.5
2022-08-10T20:00:17.518Z,959.5
2022-08-10T20:05:00.172Z,959.3
2022-08-10T20:10:00.455Z,959.3
2022-08-10T20:15:00.163Z,959
2022-08-10T20:20:00.195Z,958.8
2022-08-10T20:25:00.160Z,958.6
2022-08-10T20:30:00.168Z,958.8
2022-08-10T20:35:00.157Z,959.3
2022-08-10T20:40:00.181Z,958.4
2022-08-10T20:45:00.182Z,958.8
2022-08-10T20:50:00.223Z,958.4
2022-08-10T20:55:00.239Z,958.6
2022-08-10T21:00:04.090Z,958
2022-08-10T21:05:00.262Z,957.7
2022-08-10T21:10:00.163Z,957.3
2022-08-10T21:15:00.166Z,957.1
2022-08-10T21:20:00.167Z,957.5
2022-08-10T21:25:00.166Z,957.7
2022-08-10T21:30:00.182Z,957.5
2022-08-10T21:35:00.160Z,957.3
2022-08-10T21:40:00.335Z,957.1
2022-08-10T21:45:04.302Z,957.1
2022-08-10T21:50:03.905Z,957.1
2022-08-10T21:55:00.174Z,957.5
2022-08-10T22:00:00.162Z,957.5
2022-08-10T22:05:00.158Z,957.1
2022-08-10T22:10:00.179Z,956.9
2022-08-10T22:15:00.168Z,957.1
2022-08-10T22:20:00.162Z,957.1
2022-08-10T22:25:00.165Z,956.9
2022-08-10T22:30:00.176Z,957.5
2022-08-10T22:35:00.165Z,957.5
2022-08-10T22:40:11.544Z,957.1
2022-08-10T22:45:00.165Z,957.1
2022-08-10T22:50:03.670Z,957.5
2022-08-10T22:55:00.165Z,957.7
2022-08-10T23:00:00.191Z,957.5
2022-08-10T23:05:00.187Z,957.7
2022-08-10T23:10:00.184Z,957.5
2022-08-10T23:15:00.306Z,957.5
2022-08-10T23:20:00.192Z,958
2022-08-10T23:25:00.157Z,957.7
2022-08-10T23:30:03.621Z,958
2022-08-10T23:36:31.003Z,958
2022-08-10T23:40:00.349Z,957.5
2022-08-10T23:45:00.158Z,958
2022-08-10T23:50:00.215Z,958
2022-08-10T23:55:00.172Z,958.4
